sensor_id;sensor_type;location;lat;lon;timestamp;temperature;humidity
22742;DHT22;11538;48.884;8.696;2022-12-07T00:01:23;5.30;99.90
22742;DHT22;11538;48.884;8.696;2022-12-07T00:03:58;5.30;99.90
22742;DHT22;11538;48.884;8.696;2022-12-07T00:06:33;5.30;99.90
22742;DHT22;11538;48.884;8.696;2022-12-07T00:09:05;5.30;99.90
22742;DHT22;11538;48.884;8.696;2022-12-07T00:11:33;5.30;99.90
22742;DHT22;11538;48.884;8.696;2022-12-07T00:14:02;5.30;99.90
22742;DHT22;11538;48.884;8.696;2022-12-07T00:16:32;5.30;99.90
22742;DHT22;11538;48.884;8.696;2022-12-07T00:18:59;5.20;99.90
22742;DHT22;11538;48.884;8.696;2022-12-07T00:21:31;5.20;99.90
22742;DHT22;11538;48.884;8.696;2022-12-07T00:23:59;5.20;99.90
22742;DHT22;11538;48.884;8.696;2022-12-07T00:26:28;5.20;99.90
22742;DHT22;11538;48.884;8.696;2022-12-07T00:28:57;5.20;99.90
22742;DHT22;11538;48.884;8.696;2022-12-07T00:31:26;5.20;99.90
22742;DHT22;11538;48.884;8.696;2022-12-07T00:33:56;5.20;99.90
22742;DHT22;11538;48.884;8.696;2022-12-07T00:36:24;5.20;99.90
22742;DHT22;11538;48.884;8.696;2022-12-07T00:38:57;5.20;99.90
22742;DHT22;11538;48.884;8.696;2022-12-07T00:41:25;5.20;99.90
22742;DHT22;11538;48.884;8.696;2022-12-07T00:43:53;5.20;99.90
22742;DHT22;11538;48.884;8.696;2022-12-07T00:46:21;5.20;99.90
22742;DHT22;11538;48.884;8.696;2022-12-07T00:48:49;5.20;99.90
22742;DHT22;11538;48.884;8.696;2022-12-07T00:51:17;5.10;99.90
22742;DHT22;11538;48.884;8.696;2022-12-07T00:53:45;5.20;99.90
22742;DHT22;11538;48.884;8.696;2022-12-07T00:56:13;5.10;99.90
22742;DHT22;11538;48.884;8.696;2022-12-07T00:58:42;5.10;99.90
22742;DHT22;11538;48.884;8.696;2022-12-07T01:01:09;5.10;99.90
22742;DHT22;11538;48.884;8.696;2022-12-07T01:03:36;5.10;99.90
22742;DHT22;11538;48.884;8.696;2022-12-07T01:06:04;5.10;99.90
22742;DHT22;11538;48.884;8.696;2022-12-07T01:08:31;5.10;99.90
22742;DHT22;11538;48.884;8.696;2022-12-07T01:10:59;5.10;99.90
22742;DHT22;11538;48.884;8.696;2022-12-07T01:13:31;5.10;99.90
22742;DHT22;11538;48.884;8.696;2022-12-07T01:16:00;5.10;99.90
22742;DHT22;11538;48.884;8.696;2022-12-07T01:18:29;5.10;99.90
22742;DHT22;11538;48.884;8.696;2022-12-07T01:21:00;5.10;99.90
22742;DHT22;11538;48.884;8.696;2022-12-07T01:23:29;5.10;99.90
22742;DHT22;11538;48.884;8.696;2022-12-07T01:25:57;5.10;99.90
22742;DHT22;11538;48.884;8.696;2022-12-07T01:28:25;5.10;99.90
22742;DHT22;11538;48.884;8.696;2022-12-07T01:30:57;5.10;99.90
22742;DHT22;11538;48.884;8.696;2022-12-07T01:33:35;5.10;99.90
22742;DHT22;11538;48.884;8.696;2022-12-07T01:36:04;5.10;99.90
22742;DHT22;11538;48.884;8.696;2022-12-07T01:38:33;5.10;99.90
22742;DHT22;11538;48.884;8.696;2022-12-07T01:41:00;5.10;99.90
22742;DHT22;11538;48.884;8.696;2022-12-07T01:43:29;5.10;99.90
22742;DHT22;11538;48.884;8.696;2022-12-07T01:45:57;5.10;99.90
22742;DHT22;11538;48.884;8.696;2022-12-07T01:48:33;5.10;99.90
22742;DHT22;11538;48.884;8.696;2022-12-07T01:51:05;5.10;99.90
22742;DHT22;11538;48.884;8.696;2022-12-07T01:53:38;5.10;99.90
22742;DHT22;11538;48.884;8.696;2022-12-07T01:56:10;5.10;99.90
22742;DHT22;11538;48.884;8.696;2022-12-07T01:58:43;5.10;99.90
22742;DHT22;11538;48.884;8.696;2022-12-07T02:01:11;5.10;99.90
22742;DHT22;11538;48.884;8.696;2022-12-07T02:03:39;5.10;99.90
22742;DHT22;11538;48.884;8.696;2022-12-07T02:06:07;5.10;99.90
22742;DHT22;11538;48.884;8.696;2022-12-07T02:08:36;5.10;99.90
22742;DHT22;11538;48.884;8.696;2022-12-07T02:11:03;5.00;99.90
22742;DHT22;11538;48.884;8.696;2022-12-07T02:13:34;5.10;99.90
22742;DHT22;11538;48.884;8.696;2022-12-07T02:18:53;5.00;99.90
22742;DHT22;11538;48.884;8.696;2022-12-07T02:21:46;5.00;99.90
22742;DHT22;11538;48.884;8.696;2022-12-07T02:30:08;5.00;99.90
22742;DHT22;11538;48.884;8.696;2022-12-07T02:35:34;5.00;99.90
22742;DHT22;11538;48.884;8.696;2022-12-07T02:38:12;5.00;99.90
22742;DHT22;11538;48.884;8.696;2022-12-07T02:41:11;5.00;99.90
22742;DHT22;11538;48.884;8.696;2022-12-07T02:43:44;5.00;99.90
22742;DHT22;11538;48.884;8.696;2022-12-07T02:46:14;4.90;99.90
22742;DHT22;11538;48.884;8.696;2022-12-07T02:48:47;5.00;99.90
22742;DHT22;11538;48.884;8.696;2022-12-07T02:51:17;5.00;99.90
22742;DHT22;11538;48.884;8.696;2022-12-07T02:53:44;4.90;99.90
22742;DHT22;11538;48.884;8.696;2022-12-07T03:01:46;5.00;99.90
22742;DHT22;11538;48.884;8.696;2022-12-07T03:07:00;5.00;99.90
22742;DHT22;11538;48.884;8.696;2022-12-07T03:09:37;5.00;99.90
22742;DHT22;11538;48.884;8.696;2022-12-07T03:12:15;4.90;99.90
22742;DHT22;11538;48.884;8.696;2022-12-07T03:14:52;5.00;99.90
22742;DHT22;11538;48.884;8.696;2022-12-07T03:17:33;4.90;99.90
22742;DHT22;11538;48.884;8.696;2022-12-07T03:20:04;4.90;99.90
22742;DHT22;11538;48.884;8.696;2022-12-07T03:22:34;4.90;99.90
22742;DHT22;11538;48.884;8.696;2022-12-07T03:25:04;4.90;99.90
22742;DHT22;11538;48.884;8.696;2022-12-07T03:27:37;4.90;99.90
22742;DHT22;11538;48.884;8.696;2022-12-07T03:30:17;4.90;99.90
22742;DHT22;11538;48.884;8.696;2022-12-07T03:32:53;4.90;99.90
22742;DHT22;11538;48.884;8.696;2022-12-07T03:35:49;4.90;99.90
22742;DHT22;11538;48.884;8.696;2022-12-07T03:38:22;4.90;99.90
22742;DHT22;11538;48.884;8.696;2022-12-07T03:40:54;4.80;99.90
22742;DHT22;11538;48.884;8.696;2022-12-07T03:43:29;4.80;99.90
22742;DHT22;11538;48.884;8.696;2022-12-07T03:46:04;4.80;99.90
22742;DHT22;11538;48.884;8.696;2022-12-07T03:56:59;4.90;99.90
22742;DHT22;11538;48.884;8.696;2022-12-07T03:59:28;4.90;99.90
22742;DHT22;11538;48.884;8.696;2022-12-07T04:01:57;4.80;99.90
22742;DHT22;11538;48.884;8.696;2022-12-07T04:04:29;4.80;99.90
22742;DHT22;11538;48.884;8.696;2022-12-07T04:06:56;4.80;99.90
22742;DHT22;11538;48.884;8.696;2022-12-07T04:09:23;4.80;99.90
22742;DHT22;11538;48.884;8.696;2022-12-07T04:11:49;4.80;99.90
22742;DHT22;11538;48.884;8.696;2022-12-07T04:14:16;4.80;99.90
22742;DHT22;11538;48.884;8.696;2022-12-07T04:16:47;4.80;99.90
22742;DHT22;11538;48.884;8.696;2022-12-07T04:19:16;4.80;99.90
22742;DHT22;11538;48.884;8.696;2022-12-07T04:21:44;4.80;99.90
22742;DHT22;11538;48.884;8.696;2022-12-07T04:24:13;4.80;99.90
22742;DHT22;11538;48.884;8.696;2022-12-07T04:26:42;4.80;99.90
22742;DHT22;11538;48.884;8.696;2022-12-07T04:29:10;4.80;99.90
22742;DHT22;11538;48.884;8.696;2022-12-07T04:31:36;4.80;99.90
22742;DHT22;11538;48.884;8.696;2022-12-07T04:34:04;4.80;99.90
22742;DHT22;11538;48.884;8.696;2022-12-07T04:36:32;4.80;99.90
22742;DHT22;11538;48.884;8.696;2022-12-07T04:38:59;4.80;99.90
22742;DHT22;11538;48.884;8.696;2022-12-07T04:41:26;4.80;99.90
22742;DHT22;11538;48.884;8.696;2022-12-07T04:43:54;4.80;99.90
22742;DHT22;11538;48.884;8.696;2022-12-07T04:46:22;4.80;99.90
22742;DHT22;11538;48.884;8.696;2022-12-07T04:48:51;4.70;99.90
22742;DHT22;11538;48.884;8.696;2022-12-07T04:51:20;4.70;99.90
22742;DHT22;11538;48.884;8.696;2022-12-07T04:53:48;4.70;99.90
22742;DHT22;11538;48.884;8.696;2022-12-07T04:56:15;4.70;99.90
22742;DHT22;11538;48.884;8.696;2022-12-07T04:58:43;4.70;99.90
22742;DHT22;11538;48.884;8.696;2022-12-07T05:01:11;4.70;99.90
22742;DHT22;11538;48.884;8.696;2022-12-07T05:03:39;4.70;99.90
22742;DHT22;11538;48.884;8.696;2022-12-07T05:06:06;4.70;99.90
22742;DHT22;11538;48.884;8.696;2022-12-07T05:08:38;4.60;99.90
22742;DHT22;11538;48.884;8.696;2022-12-07T05:11:06;4.60;99.90
22742;DHT22;11538;48.884;8.696;2022-12-07T05:13:34;4.60;99.90
22742;DHT22;11538;48.884;8.696;2022-12-07T05:16:01;4.60;99.90
22742;DHT22;11538;48.884;8.696;2022-12-07T05:18:29;4.60;99.90
22742;DHT22;11538;48.884;8.696;2022-12-07T05:20:55;4.60;99.90
22742;DHT22;11538;48.884;8.696;2022-12-07T05:23:22;4.50;99.90
22742;DHT22;11538;48.884;8.696;2022-12-07T05:25:49;4.50;99.90
22742;DHT22;11538;48.884;8.696;2022-12-07T05:28:16;4.50;99.90
22742;DHT22;11538;48.884;8.696;2022-12-07T05:30:43;4.40;99.90
22742;DHT22;11538;48.884;8.696;2022-12-07T05:33:09;4.40;99.90
22742;DHT22;11538;48.884;8.696;2022-12-07T05:35:36;4.40;99.90
22742;DHT22;11538;48.884;8.696;2022-12-07T05:38:04;4.30;99.90
22742;DHT22;11538;48.884;8.696;2022-12-07T05:40:31;4.30;99.90
22742;DHT22;11538;48.884;8.696;2022-12-07T05:42:57;4.30;99.90
22742;DHT22;11538;48.884;8.696;2022-12-07T05:45:30;4.30;99.90
22742;DHT22;11538;48.884;8.696;2022-12-07T05:47:57;4.30;99.90
22742;DHT22;11538;48.884;8.696;2022-12-07T05:50:24;4.30;99.90
22742;DHT22;11538;48.884;8.696;2022-12-07T05:52:51;4.30;99.90
22742;DHT22;11538;48.884;8.696;2022-12-07T05:55:17;4.30;99.90
22742;DHT22;11538;48.884;8.696;2022-12-07T05:57:44;4.30;99.90
22742;DHT22;11538;48.884;8.696;2022-12-07T06:00:31;4.30;99.90
22742;DHT22;11538;48.884;8.696;2022-12-07T06:02:59;4.30;99.90
22742;DHT22;11538;48.884;8.696;2022-12-07T06:05:26;4.30;99.90
22742;DHT22;11538;48.884;8.696;2022-12-07T06:07:52;4.30;99.90
22742;DHT22;11538;48.884;8.696;2022-12-07T06:10:19;4.20;99.90
22742;DHT22;11538;48.884;8.696;2022-12-07T06:12:46;4.20;99.90
22742;DHT22;11538;48.884;8.696;2022-12-07T06:15:13;4.20;99.90
22742;DHT22;11538;48.884;8.696;2022-12-07T06:17:39;4.20;99.90
22742;DHT22;11538;48.884;8.696;2022-12-07T06:20:07;4.10;99.90
22742;DHT22;11538;48.884;8.696;2022-12-07T06:22:34;4.10;99.90
22742;DHT22;11538;48.884;8.696;2022-12-07T06:25:00;4.10;99.90
22742;DHT22;11538;48.884;8.696;2022-12-07T06:27:34;4.10;99.90
22742;DHT22;11538;48.884;8.696;2022-12-07T06:30:02;4.10;99.90
22742;DHT22;11538;48.884;8.696;2022-12-07T06:32:33;4.10;99.90
22742;DHT22;11538;48.884;8.696;2022-12-07T06:35:00;4.20;99.90
22742;DHT22;11538;48.884;8.696;2022-12-07T06:37:27;4.20;99.90
22742;DHT22;11538;48.884;8.696;2022-12-07T06:39:54;4.20;99.90
22742;DHT22;11538;48.884;8.696;2022-12-07T06:42:20;4.20;99.90
22742;DHT22;11538;48.884;8.696;2022-12-07T06:44:47;4.20;99.90
22742;DHT22;11538;48.884;8.696;2022-12-07T06:47:14;4.20;99.90
22742;DHT22;11538;48.884;8.696;2022-12-07T06:50:01;4.30;99.90
22742;DHT22;11538;48.884;8.696;2022-12-07T06:52:28;4.30;99.90
22742;DHT22;11538;48.884;8.696;2022-12-07T06:54:55;4.30;99.90
22742;DHT22;11538;48.884;8.696;2022-12-07T06:57:22;4.30;99.90
22742;DHT22;11538;48.884;8.696;2022-12-07T06:59:49;4.40;99.90
22742;DHT22;11538;48.884;8.696;2022-12-07T07:02:15;4.40;99.90
22742;DHT22;11538;48.884;8.696;2022-12-07T07:04:42;4.40;99.90
22742;DHT22;11538;48.884;8.696;2022-12-07T07:07:09;4.50;99.90
22742;DHT22;11538;48.884;8.696;2022-12-07T07:09:36;4.50;99.90
22742;DHT22;11538;48.884;8.696;2022-12-07T07:12:03;4.50;99.90
22742;DHT22;11538;48.884;8.696;2022-12-07T07:14:30;4.50;99.90
22742;DHT22;11538;48.884;8.696;2022-12-07T07:16:56;4.60;99.90
22742;DHT22;11538;48.884;8.696;2022-12-07T07:19:23;4.60;99.90
22742;DHT22;11538;48.884;8.696;2022-12-07T07:21:50;4.60;99.90
22742;DHT22;11538;48.884;8.696;2022-12-07T07:24:17;4.60;99.90
22742;DHT22;11538;48.884;8.696;2022-12-07T07:26:43;4.60;99.90
22742;DHT22;11538;48.884;8.696;2022-12-07T07:29:10;4.70;99.90
22742;DHT22;11538;48.884;8.696;2022-12-07T07:31:37;4.70;99.90
22742;DHT22;11538;48.884;8.696;2022-12-07T07:34:04;4.70;99.90
22742;DHT22;11538;48.884;8.696;2022-12-07T07:36:30;4.70;99.90
22742;DHT22;11538;48.884;8.696;2022-12-07T07:38:57;4.70;99.90
22742;DHT22;11538;48.884;8.696;2022-12-07T07:41:24;4.80;99.90
22742;DHT22;11538;48.884;8.696;2022-12-07T07:43:51;4.70;99.90
22742;DHT22;11538;48.884;8.696;2022-12-07T07:46:17;4.80;99.90
22742;DHT22;11538;48.884;8.696;2022-12-07T07:48:44;4.80;99.90
22742;DHT22;11538;48.884;8.696;2022-12-07T07:51:11;4.80;99.90
22742;DHT22;11538;48.884;8.696;2022-12-07T07:53:38;4.80;99.90
22742;DHT22;11538;48.884;8.696;2022-12-07T07:56:04;4.90;99.90
22742;DHT22;11538;48.884;8.696;2022-12-07T07:58:31;4.90;99.90
22742;DHT22;11538;48.884;8.696;2022-12-07T08:01:03;4.90;99.90
22742;DHT22;11538;48.884;8.696;2022-12-07T08:03:31;5.00;99.90
22742;DHT22;11538;48.884;8.696;2022-12-07T08:05:58;5.00;99.90
22742;DHT22;11538;48.884;8.696;2022-12-07T08:08:24;5.00;99.90
22742;DHT22;11538;48.884;8.696;2022-12-07T08:10:52;5.00;99.90
22742;DHT22;11538;48.884;8.696;2022-12-07T08:13:18;5.00;99.90
22742;DHT22;11538;48.884;8.696;2022-12-07T08:15:46;5.10;99.90
22742;DHT22;11538;48.884;8.696;2022-12-07T08:18:14;5.10;99.90
22742;DHT22;11538;48.884;8.696;2022-12-07T08:20:42;5.10;99.90
22742;DHT22;11538;48.884;8.696;2022-12-07T08:23:09;5.10;99.90
22742;DHT22;11538;48.884;8.696;2022-12-07T08:25:37;5.20;99.90
22742;DHT22;11538;48.884;8.696;2022-12-07T08:28:04;5.20;99.90
22742;DHT22;11538;48.884;8.696;2022-12-07T08:30:32;5.30;99.90
22742;DHT22;11538;48.884;8.696;2022-12-07T08:32:59;5.30;99.90
22742;DHT22;11538;48.884;8.696;2022-12-07T08:35:26;5.30;99.90
22742;DHT22;11538;48.884;8.696;2022-12-07T08:37:52;5.40;99.90
22742;DHT22;11538;48.884;8.696;2022-12-07T08:40:19;5.40;99.90
22742;DHT22;11538;48.884;8.696;2022-12-07T08:42:50;5.50;99.90
22742;DHT22;11538;48.884;8.696;2022-12-07T08:45:18;5.50;99.90
22742;DHT22;11538;48.884;8.696;2022-12-07T08:47:57;5.50;99.90
22742;DHT22;11538;48.884;8.696;2022-12-07T08:50:30;5.50;99.90
22742;DHT22;11538;48.884;8.696;2022-12-07T08:52:59;5.60;99.90
22742;DHT22;11538;48.884;8.696;2022-12-07T08:55:26;5.60;99.90
22742;DHT22;11538;48.884;8.696;2022-12-07T08:57:54;5.60;99.90
22742;DHT22;11538;48.884;8.696;2022-12-07T09:00:23;5.60;99.90
22742;DHT22;11538;48.884;8.696;2022-12-07T09:02:50;5.70;99.90
22742;DHT22;11538;48.884;8.696;2022-12-07T09:05:17;5.70;99.90
22742;DHT22;11538;48.884;8.696;2022-12-07T09:07:44;5.70;99.90
22742;DHT22;11538;48.884;8.696;2022-12-07T09:10:14;5.70;99.90
22742;DHT22;11538;48.884;8.696;2022-12-07T09:12:41;5.70;99.90
22742;DHT22;11538;48.884;8.696;2022-12-07T09:15:08;5.70;99.90
22742;DHT22;11538;48.884;8.696;2022-12-07T09:17:35;5.70;99.90
22742;DHT22;11538;48.884;8.696;2022-12-07T09:20:03;5.70;99.90
22742;DHT22;11538;48.884;8.696;2022-12-07T09:22:32;5.60;99.90
22742;DHT22;11538;48.884;8.696;2022-12-07T09:24:59;5.60;99.90
22742;DHT22;11538;48.884;8.696;2022-12-07T09:27:27;5.60;99.90
22742;DHT22;11538;48.884;8.696;2022-12-07T09:29:54;5.60;99.90
22742;DHT22;11538;48.884;8.696;2022-12-07T09:32:20;5.60;99.90
22742;DHT22;11538;48.884;8.696;2022-12-07T09:34:48;5.60;99.90
22742;DHT22;11538;48.884;8.696;2022-12-07T09:37:15;5.60;99.90
22742;DHT22;11538;48.884;8.696;2022-12-07T09:39:41;5.60;99.90
22742;DHT22;11538;48.884;8.696;2022-12-07T09:42:23;5.60;99.90
22742;DHT22;11538;48.884;8.696;2022-12-07T09:44:55;5.60;99.90
22742;DHT22;11538;48.884;8.696;2022-12-07T09:47:22;5.60;99.90
22742;DHT22;11538;48.884;8.696;2022-12-07T09:49:49;5.50;99.90
22742;DHT22;11538;48.884;8.696;2022-12-07T09:52:17;5.50;99.90
22742;DHT22;11538;48.884;8.696;2022-12-07T09:54:48;5.50;99.90
22742;DHT22;11538;48.884;8.696;2022-12-07T09:57:17;5.50;99.90
22742;DHT22;11538;48.884;8.696;2022-12-07T09:59:47;5.50;99.90
22742;DHT22;11538;48.884;8.696;2022-12-07T10:02:23;5.50;99.90
22742;DHT22;11538;48.884;8.696;2022-12-07T10:04:54;5.40;99.90
22742;DHT22;11538;48.884;8.696;2022-12-07T10:07:23;5.50;99.90
22742;DHT22;11538;48.884;8.696;2022-12-07T10:09:50;5.50;99.90
22742;DHT22;11538;48.884;8.696;2022-12-07T10:12:17;5.40;99.90
22742;DHT22;11538;48.884;8.696;2022-12-07T10:14:59;5.40;99.90
22742;DHT22;11538;48.884;8.696;2022-12-07T10:17:37;5.30;99.90
22742;DHT22;11538;48.884;8.696;2022-12-07T10:20:30;5.30;99.90
22742;DHT22;11538;48.884;8.696;2022-12-07T10:23:02;5.20;99.90
22742;DHT22;11538;48.884;8.696;2022-12-07T10:25:32;5.20;99.90
22742;DHT22;11538;48.884;8.696;2022-12-07T10:30:45;5.20;99.90
22742;DHT22;11538;48.884;8.696;2022-12-07T10:33:38;5.20;99.90
22742;DHT22;11538;48.884;8.696;2022-12-07T10:36:19;5.20;99.90
22742;DHT22;11538;48.884;8.696;2022-12-07T10:41:24;5.20;99.90
22742;DHT22;11538;48.884;8.696;2022-12-07T10:43:55;5.20;99.90
22742;DHT22;11538;48.884;8.696;2022-12-07T10:55:08;5.30;99.90
22742;DHT22;11538;48.884;8.696;2022-12-07T10:57:59;5.30;99.90
22742;DHT22;11538;48.884;8.696;2022-12-07T11:12:30;5.40;99.90
22742;DHT22;11538;48.884;8.696;2022-12-07T11:20:23;5.60;99.90
22742;DHT22;11538;48.884;8.696;2022-12-07T11:23:02;5.60;99.90
22742;DHT22;11538;48.884;8.696;2022-12-07T11:25:42;5.60;99.90
22742;DHT22;11538;48.884;8.696;2022-12-07T11:31:25;5.60;99.90
22742;DHT22;11538;48.884;8.696;2022-12-07T11:34:12;5.60;99.90
22742;DHT22;11538;48.884;8.696;2022-12-07T11:36:54;5.60;99.90
22742;DHT22;11538;48.884;8.696;2022-12-07T11:42:04;5.60;99.90
22742;DHT22;11538;48.884;8.696;2022-12-07T11:44:44;5.70;99.90
22742;DHT22;11538;48.884;8.696;2022-12-07T11:47:58;5.70;99.90
22742;DHT22;11538;48.884;8.696;2022-12-07T12:03:45;5.80;99.90
22742;DHT22;11538;48.884;8.696;2022-12-07T12:06:19;5.80;99.90
22742;DHT22;11538;48.884;8.696;2022-12-07T12:08:58;5.80;99.90
22742;DHT22;11538;48.884;8.696;2022-12-07T12:20:50;5.70;99.90
22742;DHT22;11538;48.884;8.696;2022-12-07T12:23:21;5.70;99.90
22742;DHT22;11538;48.884;8.696;2022-12-07T12:25:55;5.70;99.90
22742;DHT22;11538;48.884;8.696;2022-12-07T12:28:27;5.70;99.90
22742;DHT22;11538;48.884;8.696;2022-12-07T12:33:35;5.80;99.90
22742;DHT22;11538;48.884;8.696;2022-12-07T12:49:37;5.90;99.90
22742;DHT22;11538;48.884;8.696;2022-12-07T12:55:16;5.90;99.90
22742;DHT22;11538;48.884;8.696;2022-12-07T12:57:50;5.90;99.90
22742;DHT22;11538;48.884;8.696;2022-12-07T13:00:46;5.90;99.90
22742;DHT22;11538;48.884;8.696;2022-12-07T13:03:24;5.90;99.90
22742;DHT22;11538;48.884;8.696;2022-12-07T13:08:50;6.00;99.90
22742;DHT22;11538;48.884;8.696;2022-12-07T13:11:20;6.00;99.90
22742;DHT22;11538;48.884;8.696;2022-12-07T13:17:00;6.00;99.90
22742;DHT22;11538;48.884;8.696;2022-12-07T13:19:52;6.00;99.90
22742;DHT22;11538;48.884;8.696;2022-12-07T13:27:34;5.90;99.90
22742;DHT22;11538;48.884;8.696;2022-12-07T13:30:09;5.90;99.90
22742;DHT22;11538;48.884;8.696;2022-12-07T13:32:41;5.90;99.90
22742;DHT22;11538;48.884;8.696;2022-12-07T13:38:22;5.80;99.90
22742;DHT22;11538;48.884;8.696;2022-12-07T13:41:03;5.80;99.90
22742;DHT22;11538;48.884;8.696;2022-12-07T13:43:43;5.80;99.90
22742;DHT22;11538;48.884;8.696;2022-12-07T13:46:33;5.80;99.90
22742;DHT22;11538;48.884;8.696;2022-12-07T13:49:20;5.80;99.90
22742;DHT22;11538;48.884;8.696;2022-12-07T13:51:50;5.70;99.90
22742;DHT22;11538;48.884;8.696;2022-12-07T13:54:18;5.70;99.90
22742;DHT22;11538;48.884;8.696;2022-12-07T13:56:52;5.70;99.90
22742;DHT22;11538;48.884;8.696;2022-12-07T13:59:23;5.60;99.90
22742;DHT22;11538;48.884;8.696;2022-12-07T14:01:52;5.60;99.90
22742;DHT22;11538;48.884;8.696;2022-12-07T14:04:30;5.60;99.90
22742;DHT22;11538;48.884;8.696;2022-12-07T14:06:58;5.60;99.90
22742;DHT22;11538;48.884;8.696;2022-12-07T14:09:26;5.60;99.90
22742;DHT22;11538;48.884;8.696;2022-12-07T14:11:54;5.60;99.90
22742;DHT22;11538;48.884;8.696;2022-12-07T14:14:24;5.60;99.90
22742;DHT22;11538;48.884;8.696;2022-12-07T14:17:16;5.60;99.90
22742;DHT22;11538;48.884;8.696;2022-12-07T14:19:46;5.60;99.90
22742;DHT22;11538;48.884;8.696;2022-12-07T14:24:59;5.50;99.90
22742;DHT22;11538;48.884;8.696;2022-12-07T14:27:52;5.50;99.90
22742;DHT22;11538;48.884;8.696;2022-12-07T14:30:25;5.40;99.90
22742;DHT22;11538;48.884;8.696;2022-12-07T14:32:59;5.40;99.90
22742;DHT22;11538;48.884;8.696;2022-12-07T14:35:27;5.40;99.90
22742;DHT22;11538;48.884;8.696;2022-12-07T14:37:55;5.40;99.90
22742;DHT22;11538;48.884;8.696;2022-12-07T14:40:23;5.40;99.90
22742;DHT22;11538;48.884;8.696;2022-12-07T14:42:53;5.30;99.90
22742;DHT22;11538;48.884;8.696;2022-12-07T14:45:23;5.30;99.90
22742;DHT22;11538;48.884;8.696;2022-12-07T14:47:50;5.30;99.90
22742;DHT22;11538;48.884;8.696;2022-12-07T14:50:38;5.30;99.90
22742;DHT22;11538;48.884;8.696;2022-12-07T14:53:31;5.30;99.90
22742;DHT22;11538;48.884;8.696;2022-12-07T14:56:03;5.30;99.90
22742;DHT22;11538;48.884;8.696;2022-12-07T14:58:32;5.30;99.90
22742;DHT22;11538;48.884;8.696;2022-12-07T15:00:59;5.20;99.90
22742;DHT22;11538;48.884;8.696;2022-12-07T15:03:26;5.20;99.90
22742;DHT22;11538;48.884;8.696;2022-12-07T15:05:53;5.20;99.90
22742;DHT22;11538;48.884;8.696;2022-12-07T15:08:20;5.20;99.90
22742;DHT22;11538;48.884;8.696;2022-12-07T15:10:47;5.20;99.90
22742;DHT22;11538;48.884;8.696;2022-12-07T15:13:14;5.20;99.90
22742;DHT22;11538;48.884;8.696;2022-12-07T15:15:59;5.20;99.90
22742;DHT22;11538;48.884;8.696;2022-12-07T15:18:26;5.20;99.90
22742;DHT22;11538;48.884;8.696;2022-12-07T15:20:54;5.20;99.90
22742;DHT22;11538;48.884;8.696;2022-12-07T15:23:21;5.20;99.90
22742;DHT22;11538;48.884;8.696;2022-12-07T15:25:48;5.20;99.90
22742;DHT22;11538;48.884;8.696;2022-12-07T15:28:15;5.20;99.90
22742;DHT22;11538;48.884;8.696;2022-12-07T15:30:42;5.10;99.90
22742;DHT22;11538;48.884;8.696;2022-12-07T15:33:10;5.10;99.90
22742;DHT22;11538;48.884;8.696;2022-12-07T15:35:41;5.10;99.90
22742;DHT22;11538;48.884;8.696;2022-12-07T15:38:10;5.10;99.90
22742;DHT22;11538;48.884;8.696;2022-12-07T15:40:37;5.10;99.90
22742;DHT22;11538;48.884;8.696;2022-12-07T15:43:05;5.00;99.90
22742;DHT22;11538;48.884;8.696;2022-12-07T15:45:51;5.00;99.90
22742;DHT22;11538;48.884;8.696;2022-12-07T15:48:18;5.10;99.90
22742;DHT22;11538;48.884;8.696;2022-12-07T15:51:01;5.10;99.90
22742;DHT22;11538;48.884;8.696;2022-12-07T15:53:31;5.00;99.90
22742;DHT22;11538;48.884;8.696;2022-12-07T15:55:58;5.00;99.90
22742;DHT22;11538;48.884;8.696;2022-12-07T15:58:27;5.00;99.90
22742;DHT22;11538;48.884;8.696;2022-12-07T16:00:53;5.00;99.90
22742;DHT22;11538;48.884;8.696;2022-12-07T16:03:20;5.00;99.90
22742;DHT22;11538;48.884;8.696;2022-12-07T16:05:51;5.00;99.90
22742;DHT22;11538;48.884;8.696;2022-12-07T16:08:18;5.00;99.90
22742;DHT22;11538;48.884;8.696;2022-12-07T16:10:45;5.00;99.90
22742;DHT22;11538;48.884;8.696;2022-12-07T16:13:12;5.00;99.90
22742;DHT22;11538;48.884;8.696;2022-12-07T16:15:40;5.00;99.90
22742;DHT22;11538;48.884;8.696;2022-12-07T16:18:08;5.00;99.90
22742;DHT22;11538;48.884;8.696;2022-12-07T16:20:35;5.00;99.90
22742;DHT22;11538;48.884;8.696;2022-12-07T16:23:02;5.00;99.90
22742;DHT22;11538;48.884;8.696;2022-12-07T16:25:29;5.00;99.90
22742;DHT22;11538;48.884;8.696;2022-12-07T16:27:56;5.00;99.90
22742;DHT22;11538;48.884;8.696;2022-12-07T16:30:22;5.00;99.90
22742;DHT22;11538;48.884;8.696;2022-12-07T16:32:49;5.00;99.90
22742;DHT22;11538;48.884;8.696;2022-12-07T16:35:16;5.00;99.90
22742;DHT22;11538;48.884;8.696;2022-12-07T16:37:43;5.00;99.90
22742;DHT22;11538;48.884;8.696;2022-12-07T16:40:10;4.90;99.90
22742;DHT22;11538;48.884;8.696;2022-12-07T16:42:38;5.00;99.90
22742;DHT22;11538;48.884;8.696;2022-12-07T16:45:05;4.90;99.90
22742;DHT22;11538;48.884;8.696;2022-12-07T16:47:32;4.90;99.90
22742;DHT22;11538;48.884;8.696;2022-12-07T16:49:59;4.90;99.90
22742;DHT22;11538;48.884;8.696;2022-12-07T16:52:25;4.90;99.90
22742;DHT22;11538;48.884;8.696;2022-12-07T16:54:52;4.90;99.90
22742;DHT22;11538;48.884;8.696;2022-12-07T16:57:19;4.90;99.90
22742;DHT22;11538;48.884;8.696;2022-12-07T16:59:49;4.80;99.90
22742;DHT22;11538;48.884;8.696;2022-12-07T17:02:19;4.90;99.90
22742;DHT22;11538;48.884;8.696;2022-12-07T17:04:47;4.90;99.90
22742;DHT22;11538;48.884;8.696;2022-12-07T17:07:14;4.90;99.90
22742;DHT22;11538;48.884;8.696;2022-12-07T17:09:41;4.80;99.90
22742;DHT22;11538;48.884;8.696;2022-12-07T17:12:08;4.80;99.90
22742;DHT22;11538;48.884;8.696;2022-12-07T17:14:35;4.80;99.90
22742;DHT22;11538;48.884;8.696;2022-12-07T17:17:20;4.80;99.90
22742;DHT22;11538;48.884;8.696;2022-12-07T17:19:47;4.80;99.90
22742;DHT22;11538;48.884;8.696;2022-12-07T17:22:14;4.80;99.90
22742;DHT22;11538;48.884;8.696;2022-12-07T17:24:40;4.80;99.90
22742;DHT22;11538;48.884;8.696;2022-12-07T17:27:07;4.90;99.90
22742;DHT22;11538;48.884;8.696;2022-12-07T17:29:34;4.80;99.90
22742;DHT22;11538;48.884;8.696;2022-12-07T17:32:01;4.90;99.90
22742;DHT22;11538;48.884;8.696;2022-12-07T17:34:28;4.80;99.90
22742;DHT22;11538;48.884;8.696;2022-12-07T17:36:55;4.90;99.90
22742;DHT22;11538;48.884;8.696;2022-12-07T17:39:21;4.90;99.90
22742;DHT22;11538;48.884;8.696;2022-12-07T17:41:48;4.90;99.90
22742;DHT22;11538;48.884;8.696;2022-12-07T17:44:34;4.90;99.90
22742;DHT22;11538;48.884;8.696;2022-12-07T17:47:00;4.90;99.90
22742;DHT22;11538;48.884;8.696;2022-12-07T17:49:29;4.90;99.90
22742;DHT22;11538;48.884;8.696;2022-12-07T17:51:56;4.90;99.90
22742;DHT22;11538;48.884;8.696;2022-12-07T17:54:42;4.90;99.90
22742;DHT22;11538;48.884;8.696;2022-12-07T17:57:09;4.90;99.90
22742;DHT22;11538;48.884;8.696;2022-12-07T17:59:36;4.90;99.90
22742;DHT22;11538;48.884;8.696;2022-12-07T18:02:03;4.90;99.90
22742;DHT22;11538;48.884;8.696;2022-12-07T18:04:30;4.90;99.90
22742;DHT22;11538;48.884;8.696;2022-12-07T18:06:58;4.90;99.90
22742;DHT22;11538;48.884;8.696;2022-12-07T18:09:25;4.90;99.90